Huvudsida
METAR-TAF:

METAR-TAF

Flygplatser :

Björneborgs flygplats

Björneborg, Finland

latitud: 61-28N, longitud: 021-48E, höjd: 13 m

Aktuellt väderrapport

Denna rapport gjordes för 15 minuter sedan, klockan 07:50 UTC
Vind 4 kt från ost
Temperatur 3°C
Fuktighet 87%
Tryck 990 hPa
Sikt 10 km eller mer
Inga moln under 1 500 m eller inga cumulonimbus

METAR: EFPO 230750Z AUTO 09004KT CAVOK 03/01 Q0990

Tid: 11:05 (08:05 UTC)

Väderprognos

Denna rapport gjordes för 2 timmar och 37 minuter sedan, klockan 05:28 UTC
Prognos gäller från 23 kl. 06 UTC till 23 kl. 14 UTC
Vind 5 kt från ost
Sikt 10 km eller mer
Inga moln under 1 500 m eller inga cumulonimbus
Sannolikhet 30% :
Temporärt
från 23 kl. 06 UTC till 23 kl. 08 UTC
Sikt: 2000 m
Brutna moln på en höjd av 500 ft
fuktdis

TAF: EFPO 230528Z 2306/2314 09005KT CAVOK PROB30 TEMPO 2306/2308 2000 BR BKN005

Aktuella väderrapporter och prognoser från 4000 flygplatser (METAR- och TAF-rapporter).

De tillgängliga stationerna syns som gula och röda prickar på kartan.

För musen över prickarna för att se namnen på stationerna.

Klicka sedan för att få väderrapporter och prognoser.

För att ändra kartan: Klicka på de gröna knapparna med ett svart kors på för att zooma in; den gröna knappen med ett streck på för att zooma ut; eller på de gröna pilarna för angränsande kartor.


METAR-TAF: